createdAt,value
2018-08-22T00:00:37.769Z,15.8
2018-08-22T00:01:38.239Z,15.8
2018-08-22T00:02:38.066Z,15.78
2018-08-22T00:03:37.840Z,15.69
2018-08-22T00:04:38.114Z,15.72
2018-08-22T00:05:38.134Z,15.64
2018-08-22T00:06:38.160Z,15.72
2018-08-22T00:07:38.181Z,15.65
2018-08-22T00:08:38.202Z,15.71
2018-08-22T00:09:38.227Z,15.74
2018-08-22T00:10:38.256Z,15.56
2018-08-22T00:11:38.019Z,15.54
2018-08-22T00:12:38.293Z,15.6
2018-08-22T00:13:38.318Z,15.67
2018-08-22T00:14:53.006Z,15.56
2018-08-22T00:15:38.364Z,15.67
2018-08-22T00:16:37.872Z,15.57
2018-08-22T00:17:38.409Z,15.59
2018-08-22T00:18:38.430Z,15.54
2018-08-22T00:19:53.122Z,15.49
2018-08-22T00:20:38.475Z,15.57
2018-08-22T00:22:38.830Z,15.62
2018-08-22T00:23:38.543Z,15.53
2018-08-22T00:24:38.570Z,15.56
2018-08-22T00:25:38.595Z,15.56
2018-08-22T00:26:53.285Z,15.56
2018-08-22T00:27:38.378Z,15.47
2018-08-22T00:28:38.664Z,15.49
2018-08-22T00:29:38.682Z,15.54
2018-08-22T00:30:53.367Z,15.5
2018-08-22T00:31:38.470Z,15.5
2018-08-22T00:32:38.752Z,15.49
2018-08-22T00:33:38.771Z,15.38
2018-08-22T00:34:38.794Z,15.43
2018-08-22T00:35:38.559Z,15.44
2018-08-22T00:37:38.864Z,15.39
2018-08-22T00:38:38.628Z,15.41
2018-08-22T00:39:38.649Z,15.41
2018-08-22T00:40:38.931Z,15.34
2018-08-22T00:41:38.954Z,15.31
2018-08-22T00:42:38.978Z,15.2
2018-08-22T00:43:38.997Z,15.2
2018-08-22T00:44:39.025Z,15.21
2018-08-22T00:45:38.786Z,15.25
2018-08-22T00:46:53.730Z,15.2
2018-08-22T00:47:39.093Z,15.2
2018-08-22T00:48:39.109Z,15.28
2018-08-22T00:49:39.132Z,15.29
2018-08-22T00:50:38.899Z,15.2
2018-08-22T00:51:39.178Z,15.09
2018-08-22T00:52:38.947Z,15.1
2018-08-22T00:54:39.246Z,15.09
2018-08-22T00:55:39.268Z,15.06
2018-08-22T00:56:39.296Z,15.06
2018-08-22T00:57:39.372Z,14.98
2018-08-22T00:58:53.744Z,15.07
2018-08-22T00:59:39.104Z,15.06
2018-08-22T01:00:39.383Z,14.94
2018-08-22T01:01:39.149Z,15.09
2018-08-22T01:02:54.092Z,14.94
2018-08-22T01:03:39.196Z,15.02
2018-08-22T01:04:39.475Z,14.92
2018-08-22T01:05:39.508Z,14.95
2018-08-22T01:06:39.260Z,15.01
2018-08-22T01:07:39.541Z,14.99
2018-08-22T01:08:39.563Z,14.95
2018-08-22T01:09:39.588Z,14.99
2018-08-22T01:10:39.608Z,14.95
2018-08-22T01:11:39.630Z,14.95
2018-08-22T01:12:39.397Z,14.94
2018-08-22T01:13:54.439Z,14.95
2018-08-22T01:14:39.700Z,14.89
2018-08-22T01:15:39.466Z,14.83
2018-08-22T01:16:39.487Z,14.89
2018-08-22T01:17:54.448Z,14.91
2018-08-22T01:18:39.788Z,14.94
2018-08-22T01:19:39.812Z,14.81
2018-08-22T01:21:39.862Z,14.83
2018-08-22T01:22:39.624Z,14.89
2018-08-22T01:23:39.901Z,15.01
2018-08-22T01:24:39.928Z,14.98
2018-08-22T01:25:39.695Z,14.89
2018-08-22T01:26:54.637Z,14.91
2018-08-22T01:27:39.997Z,14.95
2018-08-22T01:28:40.014Z,14.94
2018-08-22T01:29:40.042Z,14.89
2018-08-22T01:30:40.067Z,14.94
2018-08-22T01:31:40.112Z,14.94
2018-08-22T01:32:40.111Z,14.92
2018-08-22T01:33:39.870Z,14.91
2018-08-22T01:34:40.148Z,14.92
2018-08-22T01:35:40.173Z,14.94
2018-08-22T01:36:39.937Z,14.94
2018-08-22T01:37:40.214Z,14.89
2018-08-22T01:38:40.237Z,14.98
2018-08-22T01:39:40.263Z,14.89
2018-08-22T01:40:40.316Z,14.83
2018-08-22T01:41:40.307Z,14.81
2018-08-22T01:42:40.329Z,14.83
2018-08-22T01:43:40.350Z,14.77
2018-08-22T01:44:40.120Z,14.72
2018-08-22T01:45:40.142Z,14.78
2018-08-22T01:46:40.418Z,14.61
2018-08-22T01:47:40.440Z,14.68
2018-08-22T01:48:40.462Z,14.62
2018-08-22T01:49:55.170Z,14.64
2018-08-22T01:50:39.997Z,14.65
2018-08-22T01:51:40.530Z,14.6
2018-08-22T01:52:40.556Z,14.6
2018-08-22T01:53:40.573Z,14.54
2018-08-22T01:55:40.366Z,14.54
2018-08-22T01:56:40.645Z,14.52
2018-08-22T01:57:40.665Z,14.54
2018-08-22T01:58:40.768Z,14.47
2018-08-22T01:59:40.452Z,14.5
2018-08-22T02:00:55.396Z,14.42
2018-08-22T02:01:40.753Z,14.45
2018-08-22T02:02:40.518Z,14.43
2018-08-22T02:03:40.801Z,14.42
2018-08-22T02:04:40.824Z,14.46
2018-08-22T02:05:55.249Z,14.36
2018-08-22T02:06:40.865Z,14.47
2018-08-22T02:07:40.631Z,14.39
2018-08-22T02:08:40.909Z,14.37
2018-08-22T02:09:40.729Z,14.21
2018-08-22T02:10:40.696Z,14.22
2018-08-22T02:11:40.718Z,14.2
2018-08-22T02:12:40.998Z,14.17
2018-08-22T02:13:55.687Z,14.18
2018-08-22T02:14:41.042Z,14.2
2018-08-22T02:15:41.070Z,14.18
2018-08-22T02:16:55.749Z,14.21
2018-08-22T02:17:41.113Z,14.17
2018-08-22T02:18:40.877Z,14.12
2018-08-22T02:19:40.639Z,14.17
2018-08-22T02:20:41.174Z,14.2
2018-08-22T02:22:40.963Z,14.04
2018-08-22T02:23:41.252Z,14.04
2018-08-22T02:24:41.267Z,14.02
2018-08-22T02:25:41.035Z,14
2018-08-22T02:26:41.323Z,13.96
2018-08-22T02:27:41.342Z,14.04
2018-08-22T02:28:41.358Z,13.91
2018-08-22T02:29:56.041Z,13.92
2018-08-22T02:30:41.401Z,13.97
2018-08-22T02:31:41.432Z,13.91
2018-08-22T02:32:41.450Z,13.95
2018-08-22T02:33:41.467Z,13.89
2018-08-22T02:34:41.491Z,13.91
2018-08-22T02:35:41.517Z,13.89
2018-08-22T02:36:41.534Z,13.88
2018-08-22T02:37:56.222Z,13.91
2018-08-22T02:39:41.601Z,13.92
2018-08-22T02:41:41.392Z,13.99
2018-08-22T02:42:41.671Z,13.99
2018-08-22T02:43:41.695Z,13.89
2018-08-22T02:44:41.461Z,13.95
2018-08-22T02:45:41.475Z,13.89
2018-08-22T02:46:41.760Z,13.96
2018-08-22T02:47:41.780Z,13.92
2018-08-22T02:48:41.805Z,13.97
2018-08-22T02:49:41.821Z,13.91
2018-08-22T02:50:41.848Z,13.92
2018-08-22T02:51:41.870Z,13.89
2018-08-22T02:52:56.293Z,13.87
2018-08-22T02:53:41.651Z,13.89
2018-08-22T02:54:41.937Z,13.88
2018-08-22T02:55:41.959Z,13.81
2018-08-22T02:57:42.004Z,13.6
2018-08-22T02:58:41.780Z,13.63
2018-08-22T02:59:42.049Z,13.69
2018-08-22T03:00:56.729Z,13.62
2018-08-22T03:01:41.833Z,13.59
2018-08-22T03:02:42.115Z,13.59
2018-08-22T03:03:42.130Z,13.62
2018-08-22T03:04:42.154Z,13.63
2018-08-22T03:05:42.177Z,13.64
2018-08-22T03:06:41.941Z,13.54
2018-08-22T03:07:42.217Z,13.57
2018-08-22T03:08:56.913Z,13.52
2018-08-22T03:09:42.276Z,13.55
2018-08-22T03:10:42.288Z,13.55
2018-08-22T03:11:56.975Z,13.44
2018-08-22T03:13:42.350Z,13.49
2018-08-22T03:14:42.129Z,13.57
2018-08-22T03:15:42.402Z,13.55
2018-08-22T03:16:42.423Z,13.6
2018-08-22T03:17:57.101Z,13.44
2018-08-22T03:18:56.868Z,13.45
2018-08-22T03:19:42.582Z,13.39
2018-08-22T03:20:42.503Z,13.38
2018-08-22T03:21:42.534Z,13.28
2018-08-22T03:22:42.552Z,13.32
2018-08-22T03:23:42.571Z,13.36
2018-08-22T03:24:57.253Z,13.33
2018-08-22T03:25:42.357Z,13.41
2018-08-22T03:26:42.678Z,13.33
2018-08-22T03:28:42.680Z,13.33
2018-08-22T03:29:42.706Z,13.38
2018-08-22T03:30:42.475Z,13.32
2018-08-22T03:31:42.751Z,13.33
2018-08-22T03:32:42.514Z,13.3
2018-08-22T03:33:42.796Z,13.38
2018-08-22T03:34:42.816Z,13.29
2018-08-22T03:35:42.834Z,13.32
2018-08-22T03:36:42.853Z,13.17
2018-08-22T03:37:42.877Z,13.25
2018-08-22T03:38:42.900Z,13.33
2018-08-22T03:40:57.603Z,13.28
2018-08-22T03:41:42.962Z,13.33
2018-08-22T03:42:42.727Z,13.32
2018-08-22T03:43:42.748Z,13.22
2018-08-22T03:44:43.030Z,13.14
2018-08-22T03:45:43.052Z,13.19
2018-08-22T03:46:42.816Z,13.15
2018-08-22T03:47:43.100Z,13.23
2018-08-22T03:48:43.118Z,13.2
2018-08-22T03:49:43.136Z,13.11
2018-08-22T03:50:57.820Z,13.25
2018-08-22T03:51:43.194Z,13.14
2018-08-22T03:52:43.204Z,13.23
2018-08-22T03:53:42.969Z,13.15
2018-08-22T03:54:42.990Z,13.2
2018-08-22T03:55:43.011Z,13.23
2018-08-22T03:56:57.950Z,13.3
2018-08-22T03:57:43.313Z,13.26
2018-08-22T03:58:43.337Z,13.29
2018-08-22T03:59:42.841Z,13.22
2018-08-22T04:00:43.384Z,13.32
2018-08-22T04:01:43.418Z,13.28
2018-08-22T04:02:42.907Z,13.2
2018-08-22T04:04:43.206Z,13.19
2018-08-22T04:05:43.486Z,13.22
2018-08-22T04:06:43.250Z,13.22
2018-08-22T04:07:43.272Z,13.38
2018-08-22T04:08:43.037Z,13.19
2018-08-22T04:09:43.579Z,13.19
2018-08-22T04:10:43.594Z,13.2
2018-08-22T04:11:43.619Z,13.26
2018-08-22T04:12:58.299Z,13.36
2018-08-22T04:13:43.656Z,13.3
2018-08-22T04:14:43.681Z,13.39
2018-08-22T04:15:43.705Z,13.39
2018-08-22T04:17:43.490Z,13.49
2018-08-22T04:19:43.790Z,13.45
2018-08-22T04:20:43.812Z,13.39
2018-08-22T04:21:43.573Z,13.38
2018-08-22T04:22:43.851Z,13.32
2018-08-22T04:23:43.618Z,13.3
2018-08-22T04:24:43.638Z,13.41
2018-08-22T04:25:43.924Z,13.29
2018-08-22T04:26:43.942Z,13.38
2018-08-22T04:27:58.623Z,13.44
2018-08-22T04:28:43.988Z,13.48
2018-08-22T04:31:44.054Z,13.49
2018-08-22T04:32:44.071Z,13.57
2018-08-22T04:33:44.093Z,13.49
2018-08-22T04:34:44.116Z,13.45
2018-08-22T04:35:44.140Z,13.51
2018-08-22T04:36:43.900Z,13.52
2018-08-22T04:37:44.177Z,13.54
2018-08-22T04:38:44.206Z,13.6
2018-08-22T04:40:43.999Z,13.6
2018-08-22T04:41:44.271Z,13.67
2018-08-22T04:42:44.029Z,13.63
2018-08-22T04:43:44.467Z,13.62
2018-08-22T04:44:44.077Z,13.64
2018-08-22T04:45:44.365Z,13.79
2018-08-22T04:46:44.119Z,13.81
2018-08-22T04:47:44.140Z,13.88
2018-08-22T04:48:44.163Z,14.06
2018-08-22T04:49:44.447Z,14.1
2018-08-22T04:50:44.470Z,14.22
2018-08-22T04:51:44.230Z,14.39
2018-08-22T04:52:44.250Z,14.46
2018-08-22T04:53:44.272Z,14.61
2018-08-22T04:54:44.554Z,14.62
2018-08-22T04:55:44.574Z,15.13
2018-08-22T04:56:44.601Z,15.68
2018-08-22T04:58:44.640Z,16.94
2018-08-22T04:59:59.329Z,17.64
2018-08-22T05:00:44.690Z,18.02
2018-08-22T05:01:44.715Z,18.51
2018-08-22T05:02:44.738Z,18.76
2018-08-22T05:03:44.761Z,19.18
2018-08-22T05:04:44.782Z,19.58
2018-08-22T05:05:44.807Z,19.94
2018-08-22T05:07:59.520Z,20.7
2018-08-22T05:08:44.882Z,20.95
2018-08-22T05:09:44.913Z,21.27
2018-08-22T05:10:44.676Z,21.44
2018-08-22T05:11:44.704Z,21.77
2018-08-22T05:12:44.725Z,21.75
2018-08-22T05:13:44.751Z,21.83
2018-08-22T05:14:45.034Z,22.09
2018-08-22T05:15:59.730Z,21.94
2018-08-22T05:16:45.098Z,22.12
2018-08-22T05:17:44.854Z,22.27
2018-08-22T05:18:45.142Z,22.27
2018-08-22T05:19:45.166Z,22.43
2018-08-22T05:20:45.192Z,22.24
2018-08-22T05:21:45.223Z,22.24
2018-08-22T05:22:59.910Z,22.46
2018-08-22T05:23:45.273Z,22.68
2018-08-22T05:24:45.544Z,22.95
2018-08-22T05:25:45.335Z,23.05
2018-08-22T05:26:45.425Z,23.38
2018-08-22T05:27:45.384Z,23.47
2018-08-22T05:28:45.418Z,23.51
2018-08-22T05:29:45.184Z,23.91
2018-08-22T05:30:45.213Z,23.9
2018-08-22T05:32:00.158Z,24.24
2018-08-22T05:32:45.523Z,24.15
2018-08-22T05:33:45.551Z,24.43
2018-08-22T05:36:45.644Z,24.21
2018-08-22T05:37:45.674Z,24.78
2018-08-22T05:38:45.704Z,25.18
2018-08-22T05:40:00.391Z,25.03
2018-08-22T05:40:45.677Z,25.08
2018-08-22T05:41:45.786Z,25.17
2018-08-22T05:42:45.559Z,25.3
2018-08-22T05:43:45.954Z,25.47
2018-08-22T05:44:45.879Z,25.72
2018-08-22T05:45:45.912Z,25.8
2018-08-22T05:48:00.376Z,26.48
2018-08-22T05:48:45.998Z,26.77
2018-08-22T05:49:46.031Z,26.82
2018-08-22T05:53:45.906Z,27.09
2018-08-22T05:54:46.189Z,27.24
2018-08-22T05:55:45.964Z,27.31
2018-08-22T05:56:46.261Z,27.37
2018-08-22T05:57:46.507Z,27.27
2018-08-22T05:58:46.338Z,27.22
2018-08-22T05:59:46.357Z,27.34
2018-08-22T06:00:46.382Z,27.59
2018-08-22T06:01:46.415Z,27.51
2018-08-22T06:03:01.110Z,27.27
2018-08-22T06:03:46.224Z,27.28
2018-08-22T06:04:46.515Z,27.47
2018-08-22T06:05:46.293Z,27.17
2018-08-22T06:06:46.592Z,27.19
2018-08-22T06:07:46.612Z,27.31
2018-08-22T06:08:46.654Z,27.41
2018-08-22T06:10:01.349Z,27.62
2018-08-22T06:11:01.385Z,27.59
2018-08-22T06:11:46.749Z,27.94
2018-08-22T06:12:46.529Z,27.99
2018-08-22T06:13:46.815Z,28.21
2018-08-22T06:14:46.849Z,28.17
2018-08-22T06:15:47.074Z,28.06
2018-08-22T06:16:46.661Z,27.94
2018-08-22T06:17:46.949Z,27.67
2018-08-22T06:18:46.727Z,27.34
2018-08-22T06:19:46.762Z,27.32
2018-08-22T06:22:47.121Z,27.19
2018-08-22T06:23:47.156Z,26.89
2018-08-22T06:24:47.188Z,26.95
2018-08-22T06:25:47.229Z,27.02
2018-08-22T06:26:47.258Z,27.39
2018-08-22T06:27:47.291Z,27.41
2018-08-22T06:28:47.069Z,27.97
2018-08-22T06:29:47.363Z,28.09
2018-08-22T06:30:47.400Z,28.34
2018-08-22T06:31:47.429Z,28.74
2018-08-22T06:32:47.464Z,29
2018-08-22T06:33:47.498Z,28.71
2018-08-22T06:35:02.198Z,29.11
2018-08-22T06:36:47.608Z,29.43
2018-08-22T06:38:47.703Z,29.6
2018-08-22T06:39:47.705Z,29.67
2018-08-22T06:40:47.747Z,29.63
2018-08-22T06:41:47.779Z,29.33
2018-08-22T06:42:47.814Z,29.18
2018-08-22T06:43:47.852Z,28.64
2018-08-22T06:45:02.550Z,29.02
2018-08-22T06:45:47.920Z,28.83
2018-08-22T06:46:47.958Z,28.88
2018-08-22T06:47:47.994Z,28.92
2018-08-22T06:48:48.025Z,28.68
2018-08-22T06:49:48.061Z,28.51
2018-08-22T06:51:02.768Z,28.51
2018-08-22T06:51:47.877Z,28.46
2018-08-22T06:52:48.171Z,28.59
2018-08-22T06:54:47.985Z,28.92
2018-08-22T06:56:48.312Z,29.19
2018-08-22T06:57:48.350Z,29.43
2018-08-22T06:58:48.387Z,29.68
2018-08-22T06:59:47.904Z,29.7
2018-08-22T07:00:48.456Z,29.51
2018-08-22T07:01:48.507Z,29.41
2018-08-22T07:02:48.632Z,29.36
2018-08-22T07:03:48.560Z,29.39
2018-08-22T07:04:48.599Z,29.21
2018-08-22T07:05:48.484Z,29.6
2018-08-22T07:07:03.341Z,29.57
2018-08-22T07:07:48.454Z,29.86
2018-08-22T07:09:48.781Z,30.02
2018-08-22T07:10:48.557Z,30.2
2018-08-22T07:11:48.592Z,30.16
2018-08-22T07:12:48.890Z,30.27
2018-08-22T07:13:48.920Z,29.83
2018-08-22T07:14:48.959Z,30.13
2018-08-22T07:15:48.999Z,29.9
2018-08-22T07:16:49.042Z,30.11
2018-08-22T07:18:03.730Z,30.64
2018-08-22T07:18:49.104Z,30.86
2018-08-22T07:19:49.139Z,30.86
2018-08-22T07:20:49.260Z,30.89
2018-08-22T07:21:49.213Z,31.23
2018-08-22T07:23:03.923Z,31.43
2018-08-22T07:23:49.027Z,31.53
2018-08-22T07:24:49.069Z,31.47
2018-08-22T07:25:49.360Z,31.56
2018-08-22T07:26:49.397Z,31.72
2018-08-22T07:27:49.175Z,32.14
2018-08-22T07:28:49.464Z,32.03
2018-08-22T07:29:49.612Z,31.86
2018-08-22T07:30:49.542Z,31.78
2018-08-22T07:31:49.583Z,31.61
2018-08-22T07:33:04.279Z,31.5
2018-08-22T07:33:49.656Z,31.53
2018-08-22T07:34:49.431Z,31.46
2018-08-22T07:35:49.962Z,31.56
2018-08-22T07:36:49.774Z,32.3
2018-08-22T07:38:04.464Z,32.55
2018-08-22T07:38:49.579Z,32.82
2018-08-22T07:39:49.873Z,32.67
2018-08-22T07:40:49.926Z,32.77
2018-08-22T07:42:49.726Z,32.21
2018-08-22T07:43:50.024Z,32.25
2018-08-22T07:44:50.057Z,32.33
2018-08-22T07:45:50.094Z,32.33
2018-08-22T07:47:04.839Z,32.04
2018-08-22T07:47:50.166Z,32.11
2018-08-22T07:48:49.956Z,32.5
2018-08-22T07:49:49.986Z,32.62
2018-08-22T07:50:50.284Z,32.07
2018-08-22T07:51:50.318Z,31.93
2018-08-22T07:52:50.096Z,32.1
2018-08-22T07:54:50.433Z,31.76
2018-08-22T07:55:50.468Z,31.7
2018-08-22T07:56:50.504Z,31.76
2018-08-22T07:57:50.277Z,31.93
2018-08-22T07:58:50.316Z,32.11
2018-08-22T07:59:50.610Z,32.15
2018-08-22T08:00:50.648Z,31.91
2018-08-22T08:01:51.013Z,31.53
2018-08-22T08:02:50.468Z,31.63
2018-08-22T08:03:50.760Z,31.72
2018-08-22T08:04:50.799Z,31.96
2018-08-22T08:05:50.893Z,32.23
2018-08-22T08:06:50.651Z,32.22
2018-08-22T08:07:50.644Z,32.74
2018-08-22T08:08:51.225Z,32.79
2018-08-22T08:10:05.384Z,32.96
2018-08-22T08:10:51.144Z,32.81
2018-08-22T08:11:51.150Z,32.88
2018-08-22T08:12:51.085Z,32.78
2018-08-22T08:13:50.862Z,32.15
2018-08-22T08:14:51.179Z,32.22
2018-08-22T08:15:51.193Z,32.25
2018-08-22T08:16:51.275Z,31.8
2018-08-22T08:17:51.302Z,32.03
2018-08-22T08:18:51.306Z,31.93
2018-08-22T08:20:06.004Z,32
2018-08-22T08:20:51.371Z,32.14
2018-08-22T08:21:51.417Z,32.19
2018-08-22T08:22:51.189Z,32.15
2018-08-22T08:23:51.482Z,32.08
2018-08-22T08:24:51.528Z,32.15
2018-08-22T08:26:06.469Z,32.62
2018-08-22T08:26:51.616Z,32.75
2018-08-22T08:27:51.369Z,32.47
2018-08-22T08:28:51.408Z,32.67
2018-08-22T08:29:51.704Z,32.65
2018-08-22T08:30:51.744Z,32.55
2018-08-22T08:31:51.772Z,32.67
2018-08-22T08:32:51.806Z,32.85
2018-08-22T08:33:51.840Z,33.11
2018-08-22T08:34:51.619Z,33.15
2018-08-22T08:36:51.951Z,33.56
2018-08-22T08:37:52.003Z,33.66
2018-08-22T08:38:52.019Z,33.63
2018-08-22T08:39:51.798Z,33.28
2018-08-22T08:40:52.097Z,33.19
2018-08-22T08:42:52.164Z,33.56
2018-08-22T08:43:52.198Z,33.39
2018-08-22T08:44:52.244Z,32.99
2018-08-22T08:45:52.017Z,32.96
2018-08-22T08:46:52.306Z,33.12
2018-08-22T08:47:52.085Z,33.45
2018-08-22T08:48:52.393Z,33.15
2018-08-22T08:49:52.426Z,32.72
2018-08-22T08:50:52.470Z,32.41
2018-08-22T08:51:52.489Z,32.63
2018-08-22T08:52:52.518Z,32.75
2018-08-22T08:53:52.586Z,32.85
2018-08-22T08:54:52.631Z,33.09
2018-08-22T08:55:52.630Z,33.29
2018-08-22T08:56:52.666Z,33.68
2018-08-22T08:58:07.371Z,33.87
2018-08-22T08:58:52.726Z,33.66
2018-08-22T08:59:52.508Z,33.56
2018-08-22T09:00:52.828Z,33.44
2018-08-22T09:01:52.834Z,33.68
2018-08-22T09:02:52.874Z,34.42
2018-08-22T09:03:53.137Z,34.84
2018-08-22T09:04:52.962Z,34.46
2018-08-22T09:05:52.978Z,34.46
2018-08-22T09:06:53.017Z,34.22
2018-08-22T09:07:53.048Z,34.44
2018-08-22T09:08:53.089Z,34.34
2018-08-22T09:09:52.862Z,34.44
2018-08-22T09:10:53.624Z,33.91
2018-08-22T09:11:53.193Z,33.95
2018-08-22T09:13:07.895Z,34.52
2018-08-22T09:13:52.747Z,34.31
2018-08-22T09:14:53.293Z,34.13
2018-08-22T09:15:53.334Z,33.95
2018-08-22T09:16:53.109Z,34.65
2018-08-22T09:17:53.410Z,34.82
2018-08-22T09:18:53.187Z,34.42
2018-08-22T09:20:53.273Z,34.44
2018-08-22T09:22:08.213Z,33.79
2018-08-22T09:22:53.587Z,33.84
2018-08-22T09:23:53.631Z,33.84
2018-08-22T09:24:53.387Z,34.37
2018-08-22T09:25:53.683Z,34.8
2018-08-22T09:26:53.714Z,35.03
2018-08-22T09:27:53.750Z,34.96
2018-08-22T09:28:53.790Z,34.34
2018-08-22T09:29:53.836Z,33.65
2018-08-22T09:30:53.855Z,33.42
2018-08-22T09:31:53.634Z,33.65
2018-08-22T09:32:53.667Z,34.06
2018-08-22T09:33:53.776Z,34.13
2018-08-22T09:34:53.998Z,34.32
2018-08-22T09:35:54.126Z,34.73
2018-08-22T09:36:53.803Z,34.85
2018-08-22T09:37:53.582Z,35.33
2018-08-22T09:38:54.132Z,35.22
2018-08-22T09:39:54.349Z,35.45
2018-08-22T09:40:53.944Z,35.45
2018-08-22T09:41:53.724Z,35.29
2018-08-22T09:42:54.268Z,34.97
2018-08-22T09:43:54.311Z,34.85
2018-08-22T09:45:09.008Z,35.26
2018-08-22T09:45:54.392Z,35.44
2018-08-22T09:47:09.304Z,35.52
2018-08-22T09:47:54.468Z,35.47
2018-08-22T09:49:54.262Z,35.18
2018-08-22T09:50:54.681Z,35.21
2018-08-22T09:51:54.323Z,35.31
2018-08-22T09:52:54.358Z,35.02
2018-08-22T09:53:54.698Z,35.66
2018-08-22T09:54:54.475Z,36.16
2018-08-22T09:55:54.720Z,36.12
2018-08-22T09:56:54.495Z,36.32
2018-08-22T09:57:54.273Z,35.65
2018-08-22T09:58:54.825Z,36.29
2018-08-22T09:59:54.944Z,36.13
2018-08-22T10:01:09.601Z,36.17
2018-08-22T10:01:54.669Z,36.32
2018-08-22T10:02:54.970Z,36.05
2018-08-22T10:03:54.739Z,35.81
2018-08-22T10:04:54.613Z,35.44
2018-08-22T10:05:54.808Z,35.44
2018-08-22T10:07:09.934Z,35.47
2018-08-22T10:07:55.131Z,35.16
2018-08-22T10:08:54.909Z,35.15
2018-08-22T10:09:55.093Z,34.77
2018-08-22T10:10:55.236Z,33.73
2018-08-22T10:11:55.400Z,33.57
2018-08-22T10:12:55.326Z,33.6
2018-08-22T10:13:55.336Z,33.44
2018-08-22T10:14:55.520Z,33.59
2018-08-22T10:15:55.154Z,33.14
2018-08-22T10:17:10.129Z,32.97
2018-08-22T10:17:55.314Z,33.56
2018-08-22T10:18:55.509Z,33.76
2018-08-22T10:19:55.549Z,34
2018-08-22T10:20:55.583Z,33.84
2018-08-22T10:21:55.349Z,33.23
2018-08-22T10:22:55.647Z,32.92
2018-08-22T10:23:55.690Z,32.29
2018-08-22T10:24:55.711Z,32.21
2018-08-22T10:25:55.740Z,32.01
2018-08-22T10:26:55.844Z,31.39
2018-08-22T10:28:10.213Z,31.13
2018-08-22T10:28:55.860Z,30.7
2018-08-22T10:29:55.618Z,30.1
2018-08-22T10:30:55.948Z,30.15
2018-08-22T10:31:55.941Z,30.45
2018-08-22T10:33:10.785Z,30.42
2018-08-22T10:33:56.011Z,30.37
2018-08-22T10:34:56.043Z,30.42
2018-08-22T10:35:56.072Z,30.55
2018-08-22T10:36:56.108Z,30.43
2018-08-22T10:37:56.194Z,30.13
2018-08-22T10:38:56.176Z,30.32
2018-08-22T10:39:56.209Z,30.38
2018-08-22T10:40:56.233Z,30.22
2018-08-22T10:41:56.013Z,30.13
2018-08-22T10:42:56.299Z,30.17
2018-08-22T10:43:56.342Z,30.47
2018-08-22T10:44:56.366Z,30.72
2018-08-22T10:45:56.396Z,30.95
2018-08-22T10:46:56.430Z,31.01
2018-08-22T10:48:56.494Z,30.53
2018-08-22T10:49:56.524Z,30.34
2018-08-22T10:50:56.300Z,30.55
2018-08-22T10:51:56.335Z,30.7
2018-08-22T10:52:56.368Z,30.86
2018-08-22T10:53:56.474Z,30.88
2018-08-22T10:55:11.354Z,30.79
2018-08-22T10:55:56.718Z,30.99
2018-08-22T10:57:11.414Z,30.58
2018-08-22T10:57:56.779Z,30.47
2018-08-22T10:58:56.811Z,30.29
2018-08-22T10:59:56.847Z,30.19
2018-08-22T11:00:56.880Z,30.23
2018-08-22T11:01:57.091Z,30.19
2018-08-22T11:04:56.754Z,30.57
2018-08-22T11:05:57.043Z,30.04
2018-08-22T11:06:57.071Z,29.55
2018-08-22T11:08:11.770Z,29.31
2018-08-22T11:08:57.126Z,29.31
2018-08-22T11:10:11.838Z,29.16
2018-08-22T11:10:57.189Z,29.14
2018-08-22T11:11:56.969Z,29.19
2018-08-22T11:12:57.251Z,29.21
2018-08-22T11:13:57.285Z,29.28
2018-08-22T11:14:57.311Z,29.31
2018-08-22T11:15:57.787Z,29.31
2018-08-22T11:16:57.370Z,29.14
2018-08-22T11:17:57.460Z,28.96
2018-08-22T11:18:57.176Z,28.96
2018-08-22T11:20:12.121Z,28.37
2018-08-22T11:20:57.495Z,28.31
2018-08-22T11:21:57.520Z,28.46
2018-08-22T11:22:57.558Z,28.67
2018-08-22T11:23:57.585Z,28.7
2018-08-22T11:24:57.609Z,28.41
2018-08-22T11:25:57.645Z,28.61
2018-08-22T11:26:57.674Z,28.78
2018-08-22T11:27:57.701Z,29.37
2018-08-22T11:29:12.395Z,29.83
2018-08-22T11:29:57.766Z,29.92
2018-08-22T11:30:57.800Z,29.97
2018-08-22T11:31:57.563Z,30.08
2018-08-22T11:32:57.848Z,29.92
2018-08-22T11:33:57.880Z,29.74
2018-08-22T11:34:57.921Z,29.7
2018-08-22T11:36:12.603Z,29.86
2018-08-22T11:38:57.776Z,30.13
2018-08-22T11:39:57.800Z,30.15
2018-08-22T11:40:58.087Z,30.34
2018-08-22T11:41:58.118Z,30.31
2018-08-22T11:42:58.150Z,30.31
2018-08-22T11:43:57.662Z,30.31
2018-08-22T11:44:58.207Z,30.42
2018-08-22T11:46:12.641Z,30.58
2018-08-22T11:46:58.009Z,30.53
2018-08-22T11:47:58.295Z,30.7
2018-08-22T11:48:58.328Z,30.77
2018-08-22T11:49:58.367Z,30.92
2018-08-22T11:50:58.383Z,30.75
2018-08-22T11:52:13.081Z,30.83
2018-08-22T11:52:58.186Z,30.76
2018-08-22T11:54:58.503Z,30.61
2018-08-22T11:55:58.634Z,30.53
2018-08-22T11:57:13.228Z,30.29
2018-08-22T11:57:58.334Z,30.08
2018-08-22T11:58:58.620Z,30
2018-08-22T12:00:13.312Z,30
2018-08-22T12:00:58.681Z,29.98
2018-08-22T12:01:58.988Z,29.8
2018-08-22T12:02:58.745Z,29.82
2018-08-22T12:03:58.510Z,29.9
2018-08-22T12:04:58.545Z,29.98
2018-08-22T12:05:58.830Z,29.87
2018-08-22T12:06:58.862Z,29.71
2018-08-22T12:08:59.021Z,29.46
2018-08-22T12:10:58.715Z,29
2018-08-22T12:11:59.005Z,28.71
2018-08-22T12:12:58.788Z,28.68
2018-08-22T12:13:59.066Z,28.59
2018-08-22T12:15:13.756Z,28.76
2018-08-22T12:16:13.866Z,29.11
2018-08-22T12:17:13.813Z,29.31
2018-08-22T12:17:59.180Z,29.48
2018-08-22T12:18:59.207Z,29.53
2018-08-22T12:19:58.982Z,29.61
2018-08-22T12:20:59.010Z,29.86
2018-08-22T12:21:59.299Z,29.7
2018-08-22T12:23:14.305Z,29.55
2018-08-22T12:24:59.382Z,29.57
2018-08-22T12:25:59.417Z,29.43
2018-08-22T12:26:59.184Z,29.3
2018-08-22T12:27:59.215Z,29.21
2018-08-22T12:28:59.554Z,29.09
2018-08-22T12:29:59.530Z,29.08
2018-08-22T12:30:59.365Z,29.09
2018-08-22T12:32:14.251Z,29.09
2018-08-22T12:32:59.621Z,29.23
2018-08-22T12:33:59.393Z,29.16
2018-08-22T12:34:59.419Z,29.12
2018-08-22T12:35:59.443Z,29.16
2018-08-22T12:36:59.753Z,29.15
2018-08-22T12:37:59.761Z,28.92
2018-08-22T12:38:59.533Z,28.81
2018-08-22T12:39:59.564Z,28.88
2018-08-22T12:40:59.850Z,29.11
2018-08-22T12:41:59.882Z,29.15
2018-08-22T12:43:59.934Z,29.51
2018-08-22T12:44:59.965Z,29.58
2018-08-22T12:45:59.784Z,29.78
2018-08-22T12:46:59.763Z,29.8
2018-08-22T12:47:59.793Z,29.85
2018-08-22T12:49:00.080Z,30
2018-08-22T12:50:14.569Z,29.87
2018-08-22T12:50:59.880Z,29.85
2018-08-22T12:51:59.907Z,30.02
2018-08-22T12:53:00.191Z,30
2018-08-22T12:54:00.222Z,30.13
2018-08-22T12:55:14.913Z,30.13
2018-08-22T12:56:00.277Z,30.13
2018-08-22T12:57:00.313Z,30.19
2018-08-22T12:59:00.367Z,30.29
2018-08-22T13:00:00.138Z,30.27
2018-08-22T13:01:00.168Z,29.92
2018-08-22T13:02:00.462Z,29.58
2018-08-22T13:03:00.488Z,29.49
2018-08-22T13:04:00.513Z,29.57
2018-08-22T13:05:00.541Z,29.63
2018-08-22T13:07:00.344Z,29.55
2018-08-22T13:08:00.624Z,29.55
2018-08-22T13:09:00.662Z,29.52
2018-08-22T13:10:00.429Z,29.6
2018-08-22T13:11:15.168Z,29.53
2018-08-22T13:12:00.743Z,29.53
2018-08-22T13:13:00.772Z,29.42
2018-08-22T13:14:00.543Z,29.27
2018-08-22T13:15:00.830Z,29.3
2018-08-22T13:16:00.863Z,29.43
2018-08-22T13:17:01.095Z,29.23
2018-08-22T13:18:00.659Z,29.15
2018-08-22T13:20:00.970Z,29.14
2018-08-22T13:22:00.779Z,29.04
2018-08-22T13:23:01.070Z,29.39
2018-08-22T13:24:01.202Z,29.55
2018-08-22T13:25:00.870Z,29.55
2018-08-22T13:26:01.151Z,29.45
2018-08-22T13:27:15.839Z,29.48
2018-08-22T13:28:00.947Z,29.58
2018-08-22T13:29:01.237Z,29.6
2018-08-22T13:30:01.277Z,29.73
2018-08-22T13:31:01.329Z,29.74
2018-08-22T13:32:01.316Z,29.86
2018-08-22T13:34:01.119Z,29.85
2018-08-22T13:35:01.408Z,29.94
2018-08-22T13:36:01.457Z,30
2018-08-22T13:37:01.464Z,29.71
2018-08-22T13:38:15.894Z,29.64
2018-08-22T13:39:01.706Z,29.73
2018-08-22T13:40:01.547Z,29.92
2018-08-22T13:41:01.065Z,30.02
2018-08-22T13:42:01.357Z,30.07
2018-08-22T13:43:16.296Z,30.11
2018-08-22T13:44:01.719Z,30.22
2018-08-22T13:45:01.709Z,30.24
2018-08-22T13:46:01.719Z,30.17
2018-08-22T13:48:01.779Z,29.68
2018-08-22T13:49:01.549Z,29.51
2018-08-22T13:50:01.836Z,29.37
2018-08-22T13:51:02.039Z,29.21